sensor_id;sensor_type;location;lat;lon;timestamp;pressure;altitude;pressure_sealevel;temperature
19948;BMP180;10135;50.702;7.276;2022-07-17T00:00:37;100499.00;;;20.30
19948;BMP180;10135;50.702;7.276;2022-07-17T00:02:42;100491.00;;;20.30
19948;BMP180;10135;50.702;7.276;2022-07-17T00:04:43;100492.00;;;20.20
19948;BMP180;10135;50.702;7.276;2022-07-17T00:06:44;100485.00;;;20.20
19948;BMP180;10135;50.702;7.276;2022-07-17T00:08:44;100495.00;;;20.20
19948;BMP180;10135;50.702;7.276;2022-07-17T00:10:45;100489.00;;;20.10
19948;BMP180;10135;50.702;7.276;2022-07-17T00:12:46;100493.00;;;20.10
19948;BMP180;10135;50.702;7.276;2022-07-17T00:14:46;100486.00;;;20.10
19948;BMP180;10135;50.702;7.276;2022-07-17T00:16:47;100485.00;;;20.10
19948;BMP180;10135;50.702;7.276;2022-07-17T00:18:48;100494.00;;;20.00
19948;BMP180;10135;50.702;7.276;2022-07-17T00:20:49;100492.00;;;20.00
19948;BMP180;10135;50.702;7.276;2022-07-17T00:22:54;100486.00;;;20.00
19948;BMP180;10135;50.702;7.276;2022-07-17T00:24:58;100491.00;;;20.00
19948;BMP180;10135;50.702;7.276;2022-07-17T00:26:59;100488.00;;;20.00
19948;BMP180;10135;50.702;7.276;2022-07-17T00:28:59;100484.00;;;19.90
19948;BMP180;10135;50.702;7.276;2022-07-17T00:31:00;100486.00;;;19.90
19948;BMP180;10135;50.702;7.276;2022-07-17T00:33:01;100480.00;;;19.90
19948;BMP180;10135;50.702;7.276;2022-07-17T00:35:02;100479.00;;;19.90
19948;BMP180;10135;50.702;7.276;2022-07-17T00:37:03;100485.00;;;19.80
19948;BMP180;10135;50.702;7.276;2022-07-17T00:39:04;100490.00;;;19.80
19948;BMP180;10135;50.702;7.276;2022-07-17T00:41:05;100480.00;;;19.80
19948;BMP180;10135;50.702;7.276;2022-07-17T00:43:05;100484.00;;;19.80
19948;BMP180;10135;50.702;7.276;2022-07-17T00:45:08;100484.00;;;19.80
19948;BMP180;10135;50.702;7.276;2022-07-17T00:47:20;100479.00;;;19.70
19948;BMP180;10135;50.702;7.276;2022-07-17T00:49:20;100478.00;;;19.70
19948;BMP180;10135;50.702;7.276;2022-07-17T00:51:21;100488.00;;;19.70
19948;BMP180;10135;50.702;7.276;2022-07-17T00:53:23;100480.00;;;19.60
19948;BMP180;10135;50.702;7.276;2022-07-17T00:55:24;100480.00;;;19.60
19948;BMP180;10135;50.702;7.276;2022-07-17T00:57:26;100476.00;;;19.60
19948;BMP180;10135;50.702;7.276;2022-07-17T00:59:29;100480.00;;;19.50
19948;BMP180;10135;50.702;7.276;2022-07-17T01:01:31;100475.00;;;19.50
19948;BMP180;10135;50.702;7.276;2022-07-17T01:03:32;100464.00;;;19.50
19948;BMP180;10135;50.702;7.276;2022-07-17T01:05:33;100468.00;;;19.40
19948;BMP180;10135;50.702;7.276;2022-07-17T01:07:34;100467.00;;;19.40
19948;BMP180;10135;50.702;7.276;2022-07-17T01:09:35;100467.00;;;19.40
19948;BMP180;10135;50.702;7.276;2022-07-17T01:11:35;100475.00;;;19.40
19948;BMP180;10135;50.702;7.276;2022-07-17T01:13:36;100468.00;;;19.40
19948;BMP180;10135;50.702;7.276;2022-07-17T01:15:40;100470.00;;;19.30
19948;BMP180;10135;50.702;7.276;2022-07-17T01:17:41;100468.00;;;19.30
19948;BMP180;10135;50.702;7.276;2022-07-17T01:19:42;100476.00;;;19.30
19948;BMP180;10135;50.702;7.276;2022-07-17T01:21:46;100474.00;;;19.30
19948;BMP180;10135;50.702;7.276;2022-07-17T01:23:47;100476.00;;;19.30
19948;BMP180;10135;50.702;7.276;2022-07-17T01:25:47;100479.00;;;19.30
19948;BMP180;10135;50.702;7.276;2022-07-17T01:27:49;100476.00;;;19.20
19948;BMP180;10135;50.702;7.276;2022-07-17T01:29:49;100483.00;;;19.20
19948;BMP180;10135;50.702;7.276;2022-07-17T01:31:50;100485.00;;;19.20
19948;BMP180;10135;50.702;7.276;2022-07-17T01:33:51;100492.00;;;19.20
19948;BMP180;10135;50.702;7.276;2022-07-17T01:35:51;100492.00;;;19.20
19948;BMP180;10135;50.702;7.276;2022-07-17T01:37:52;100495.00;;;19.20
19948;BMP180;10135;50.702;7.276;2022-07-17T01:39:53;100497.00;;;19.10
19948;BMP180;10135;50.702;7.276;2022-07-17T01:41:53;100497.00;;;19.10
19948;BMP180;10135;50.702;7.276;2022-07-17T01:43:54;100490.00;;;19.10
19948;BMP180;10135;50.702;7.276;2022-07-17T01:45:55;100491.00;;;19.10
19948;BMP180;10135;50.702;7.276;2022-07-17T01:47:56;100494.00;;;19.10
19948;BMP180;10135;50.702;7.276;2022-07-17T01:49:58;100499.00;;;19.10
19948;BMP180;10135;50.702;7.276;2022-07-17T01:51:58;100487.00;;;19.00
19948;BMP180;10135;50.702;7.276;2022-07-17T01:54:00;100494.00;;;19.00
19948;BMP180;10135;50.702;7.276;2022-07-17T01:56:01;100501.00;;;19.00
19948;BMP180;10135;50.702;7.276;2022-07-17T01:58:05;100499.00;;;19.00
19948;BMP180;10135;50.702;7.276;2022-07-17T02:00:10;100499.00;;;18.90
19948;BMP180;10135;50.702;7.276;2022-07-17T02:02:13;100499.00;;;18.90
19948;BMP180;10135;50.702;7.276;2022-07-17T02:04:15;100496.00;;;18.90
19948;BMP180;10135;50.702;7.276;2022-07-17T02:06:16;100497.00;;;18.90
19948;BMP180;10135;50.702;7.276;2022-07-17T02:08:17;100493.00;;;18.90
19948;BMP180;10135;50.702;7.276;2022-07-17T02:10:17;100489.00;;;18.80
19948;BMP180;10135;50.702;7.276;2022-07-17T02:12:18;100486.00;;;18.80
19948;BMP180;10135;50.702;7.276;2022-07-17T02:14:19;100480.00;;;18.80
19948;BMP180;10135;50.702;7.276;2022-07-17T02:16:20;100486.00;;;18.70
19948;BMP180;10135;50.702;7.276;2022-07-17T02:18:20;100482.00;;;18.70
19948;BMP180;10135;50.702;7.276;2022-07-17T02:20:21;100481.00;;;18.70
19948;BMP180;10135;50.702;7.276;2022-07-17T02:22:22;100485.00;;;18.60
19948;BMP180;10135;50.702;7.276;2022-07-17T02:24:22;100481.00;;;18.60
19948;BMP180;10135;50.702;7.276;2022-07-17T02:26:23;100478.00;;;18.60
19948;BMP180;10135;50.702;7.276;2022-07-17T02:28:24;100487.00;;;18.60
19948;BMP180;10135;50.702;7.276;2022-07-17T02:30:24;100476.00;;;18.60
19948;BMP180;10135;50.702;7.276;2022-07-17T02:32:25;100480.00;;;18.60
19948;BMP180;10135;50.702;7.276;2022-07-17T02:34:26;100480.00;;;18.50
19948;BMP180;10135;50.702;7.276;2022-07-17T02:36:26;100485.00;;;18.50
19948;BMP180;10135;50.702;7.276;2022-07-17T02:38:28;100485.00;;;18.50
19948;BMP180;10135;50.702;7.276;2022-07-17T02:40:28;100480.00;;;18.50
19948;BMP180;10135;50.702;7.276;2022-07-17T02:42:29;100483.00;;;18.50
19948;BMP180;10135;50.702;7.276;2022-07-17T02:44:30;100483.00;;;18.50
19948;BMP180;10135;50.702;7.276;2022-07-17T02:46:31;100484.00;;;18.50
19948;BMP180;10135;50.702;7.276;2022-07-17T02:48:32;100488.00;;;18.50
19948;BMP180;10135;50.702;7.276;2022-07-17T02:50:32;100494.00;;;18.50
19948;BMP180;10135;50.702;7.276;2022-07-17T02:52:33;100488.00;;;18.40
19948;BMP180;10135;50.702;7.276;2022-07-17T02:54:34;100484.00;;;18.40
19948;BMP180;10135;50.702;7.276;2022-07-17T02:56:35;100486.00;;;18.40
19948;BMP180;10135;50.702;7.276;2022-07-17T02:58:35;100491.00;;;18.40
19948;BMP180;10135;50.702;7.276;2022-07-17T03:00:36;100489.00;;;18.40
19948;BMP180;10135;50.702;7.276;2022-07-17T03:02:37;100482.00;;;18.40
19948;BMP180;10135;50.702;7.276;2022-07-17T03:04:38;100484.00;;;18.40
19948;BMP180;10135;50.702;7.276;2022-07-17T03:06:39;100490.00;;;18.30
19948;BMP180;10135;50.702;7.276;2022-07-17T03:08:40;100486.00;;;18.30
19948;BMP180;10135;50.702;7.276;2022-07-17T03:10:41;100490.00;;;18.30
19948;BMP180;10135;50.702;7.276;2022-07-17T03:12:42;100486.00;;;18.30
19948;BMP180;10135;50.702;7.276;2022-07-17T03:14:43;100489.00;;;18.30
19948;BMP180;10135;50.702;7.276;2022-07-17T03:16:44;100490.00;;;18.30
19948;BMP180;10135;50.702;7.276;2022-07-17T03:18:44;100492.00;;;18.30
19948;BMP180;10135;50.702;7.276;2022-07-17T03:20:45;100489.00;;;18.30
19948;BMP180;10135;50.702;7.276;2022-07-17T03:22:45;100490.00;;;18.20
19948;BMP180;10135;50.702;7.276;2022-07-17T03:24:46;100490.00;;;18.20
19948;BMP180;10135;50.702;7.276;2022-07-17T03:26:47;100497.00;;;18.20
19948;BMP180;10135;50.702;7.276;2022-07-17T03:28:47;100494.00;;;18.20
19948;BMP180;10135;50.702;7.276;2022-07-17T03:30:48;100489.00;;;18.10
19948;BMP180;10135;50.702;7.276;2022-07-17T03:32:49;100485.00;;;18.10
19948;BMP180;10135;50.702;7.276;2022-07-17T03:34:49;100484.00;;;18.10
19948;BMP180;10135;50.702;7.276;2022-07-17T03:36:50;100490.00;;;18.10
19948;BMP180;10135;50.702;7.276;2022-07-17T03:38:51;100483.00;;;18.10
19948;BMP180;10135;50.702;7.276;2022-07-17T03:40:51;100482.00;;;18.10
19948;BMP180;10135;50.702;7.276;2022-07-17T03:42:52;100483.00;;;18.10
19948;BMP180;10135;50.702;7.276;2022-07-17T03:44:52;100485.00;;;18.10
19948;BMP180;10135;50.702;7.276;2022-07-17T03:46:53;100483.00;;;18.00
19948;BMP180;10135;50.702;7.276;2022-07-17T03:48:54;100478.00;;;18.00
19948;BMP180;10135;50.702;7.276;2022-07-17T03:50:55;100486.00;;;18.10
19948;BMP180;10135;50.702;7.276;2022-07-17T03:52:55;100485.00;;;18.00
19948;BMP180;10135;50.702;7.276;2022-07-17T03:54:56;100488.00;;;18.00
19948;BMP180;10135;50.702;7.276;2022-07-17T03:56:57;100489.00;;;18.00
19948;BMP180;10135;50.702;7.276;2022-07-17T03:58:58;100487.00;;;18.00
19948;BMP180;10135;50.702;7.276;2022-07-17T04:00:59;100488.00;;;18.00
19948;BMP180;10135;50.702;7.276;2022-07-17T04:03:00;100491.00;;;18.00
19948;BMP180;10135;50.702;7.276;2022-07-17T04:05:00;100491.00;;;18.00
19948;BMP180;10135;50.702;7.276;2022-07-17T04:07:01;100487.00;;;18.10
19948;BMP180;10135;50.702;7.276;2022-07-17T04:09:04;100496.00;;;18.10
19948;BMP180;10135;50.702;7.276;2022-07-17T04:11:05;100494.00;;;18.10
19948;BMP180;10135;50.702;7.276;2022-07-17T04:13:05;100497.00;;;18.10
19948;BMP180;10135;50.702;7.276;2022-07-17T04:15:08;100503.00;;;18.10
19948;BMP180;10135;50.702;7.276;2022-07-17T04:17:09;100506.00;;;18.10
19948;BMP180;10135;50.702;7.276;2022-07-17T04:19:09;100508.00;;;18.20
19948;BMP180;10135;50.702;7.276;2022-07-17T04:21:10;100508.00;;;18.20
19948;BMP180;10135;50.702;7.276;2022-07-17T04:23:11;100515.00;;;18.20
19948;BMP180;10135;50.702;7.276;2022-07-17T04:25:12;100516.00;;;18.20
19948;BMP180;10135;50.702;7.276;2022-07-17T04:27:13;100513.00;;;18.20
19948;BMP180;10135;50.702;7.276;2022-07-17T04:29:14;100515.00;;;18.30
19948;BMP180;10135;50.702;7.276;2022-07-17T04:31:14;100520.00;;;18.30
19948;BMP180;10135;50.702;7.276;2022-07-17T04:33:16;100529.00;;;18.30
19948;BMP180;10135;50.702;7.276;2022-07-17T04:35:16;100525.00;;;18.40
19948;BMP180;10135;50.702;7.276;2022-07-17T04:37:17;100525.00;;;18.40
19948;BMP180;10135;50.702;7.276;2022-07-17T04:39:18;100532.00;;;18.50
19948;BMP180;10135;50.702;7.276;2022-07-17T04:41:18;100528.00;;;18.60
19948;BMP180;10135;50.702;7.276;2022-07-17T04:43:19;100535.00;;;18.60
19948;BMP180;10135;50.702;7.276;2022-07-17T04:45:20;100533.00;;;18.70
19948;BMP180;10135;50.702;7.276;2022-07-17T04:47:20;100528.00;;;18.70
19948;BMP180;10135;50.702;7.276;2022-07-17T04:49:21;100523.00;;;18.80
19948;BMP180;10135;50.702;7.276;2022-07-17T04:51:22;100525.00;;;18.90
19948;BMP180;10135;50.702;7.276;2022-07-17T04:53:22;100525.00;;;18.90
19948;BMP180;10135;50.702;7.276;2022-07-17T04:55:23;100520.00;;;18.90
19948;BMP180;10135;50.702;7.276;2022-07-17T04:57:24;100518.00;;;19.00
19948;BMP180;10135;50.702;7.276;2022-07-17T04:59:25;100520.00;;;19.00
19948;BMP180;10135;50.702;7.276;2022-07-17T05:01:25;100519.00;;;19.00
19948;BMP180;10135;50.702;7.276;2022-07-17T05:03:26;100516.00;;;18.90
19948;BMP180;10135;50.702;7.276;2022-07-17T05:05:26;100519.00;;;18.90
19948;BMP180;10135;50.702;7.276;2022-07-17T05:07:27;100520.00;;;18.90
19948;BMP180;10135;50.702;7.276;2022-07-17T05:09:28;100514.00;;;18.90
19948;BMP180;10135;50.702;7.276;2022-07-17T05:11:29;100524.00;;;18.90
19948;BMP180;10135;50.702;7.276;2022-07-17T05:13:30;100523.00;;;18.90
19948;BMP180;10135;50.702;7.276;2022-07-17T05:15:30;100525.00;;;18.90
19948;BMP180;10135;50.702;7.276;2022-07-17T05:17:31;100529.00;;;18.90
19948;BMP180;10135;50.702;7.276;2022-07-17T05:19:32;100521.00;;;18.90
19948;BMP180;10135;50.702;7.276;2022-07-17T05:21:32;100529.00;;;19.00
19948;BMP180;10135;50.702;7.276;2022-07-17T05:23:33;100537.00;;;19.00
19948;BMP180;10135;50.702;7.276;2022-07-17T05:25:33;100542.00;;;19.00
19948;BMP180;10135;50.702;7.276;2022-07-17T05:27:34;100544.00;;;19.00
19948;BMP180;10135;50.702;7.276;2022-07-17T05:29:35;100544.00;;;19.10
19948;BMP180;10135;50.702;7.276;2022-07-17T05:31:36;100541.00;;;19.10
19948;BMP180;10135;50.702;7.276;2022-07-17T05:33:37;100544.00;;;19.10
19948;BMP180;10135;50.702;7.276;2022-07-17T05:35:37;100550.00;;;19.20
19948;BMP180;10135;50.702;7.276;2022-07-17T05:37:38;100547.00;;;19.20
19948;BMP180;10135;50.702;7.276;2022-07-17T05:39:39;100542.00;;;19.20
19948;BMP180;10135;50.702;7.276;2022-07-17T05:41:40;100545.00;;;19.30
19948;BMP180;10135;50.702;7.276;2022-07-17T05:43:40;100547.00;;;19.30
19948;BMP180;10135;50.702;7.276;2022-07-17T05:45:41;100544.00;;;19.30
19948;BMP180;10135;50.702;7.276;2022-07-17T05:47:42;100547.00;;;19.40
19948;BMP180;10135;50.702;7.276;2022-07-17T05:49:42;100549.00;;;19.50
19948;BMP180;10135;50.702;7.276;2022-07-17T05:51:43;100554.00;;;19.50
19948;BMP180;10135;50.702;7.276;2022-07-17T05:53:43;100556.00;;;19.60
19948;BMP180;10135;50.702;7.276;2022-07-17T05:55:44;100551.00;;;19.60
19948;BMP180;10135;50.702;7.276;2022-07-17T05:57:45;100547.00;;;19.70
19948;BMP180;10135;50.702;7.276;2022-07-17T05:59:45;100558.00;;;19.80
19948;BMP180;10135;50.702;7.276;2022-07-17T06:01:46;100552.00;;;19.80
19948;BMP180;10135;50.702;7.276;2022-07-17T06:03:47;100553.00;;;19.80
19948;BMP180;10135;50.702;7.276;2022-07-17T06:05:47;100558.00;;;19.90
19948;BMP180;10135;50.702;7.276;2022-07-17T06:07:48;100549.00;;;19.90
19948;BMP180;10135;50.702;7.276;2022-07-17T06:09:49;100553.00;;;19.90
19948;BMP180;10135;50.702;7.276;2022-07-17T06:11:49;100547.00;;;20.00
19948;BMP180;10135;50.702;7.276;2022-07-17T06:13:50;100559.00;;;20.00
19948;BMP180;10135;50.702;7.276;2022-07-17T06:15:51;100548.00;;;20.10
19948;BMP180;10135;50.702;7.276;2022-07-17T06:17:51;100552.00;;;20.10
19948;BMP180;10135;50.702;7.276;2022-07-17T06:19:52;100555.00;;;20.20
19948;BMP180;10135;50.702;7.276;2022-07-17T06:21:53;100563.00;;;20.30
19948;BMP180;10135;50.702;7.276;2022-07-17T06:23:53;100564.00;;;20.30
19948;BMP180;10135;50.702;7.276;2022-07-17T06:25:54;100573.00;;;20.40
19948;BMP180;10135;50.702;7.276;2022-07-17T06:27:54;100571.00;;;20.40
19948;BMP180;10135;50.702;7.276;2022-07-17T06:29:55;100583.00;;;20.50
19948;BMP180;10135;50.702;7.276;2022-07-17T06:31:56;100582.00;;;20.50
19948;BMP180;10135;50.702;7.276;2022-07-17T06:33:56;100575.00;;;20.60
19948;BMP180;10135;50.702;7.276;2022-07-17T06:35:57;100581.00;;;20.60
19948;BMP180;10135;50.702;7.276;2022-07-17T06:37:58;100577.00;;;20.70
19948;BMP180;10135;50.702;7.276;2022-07-17T06:39:58;100583.00;;;20.70
19948;BMP180;10135;50.702;7.276;2022-07-17T06:42:00;100571.00;;;20.70
19948;BMP180;10135;50.702;7.276;2022-07-17T06:44:01;100573.00;;;20.80
19948;BMP180;10135;50.702;7.276;2022-07-17T06:46:02;100575.00;;;20.90
19948;BMP180;10135;50.702;7.276;2022-07-17T06:48:03;100565.00;;;20.90
19948;BMP180;10135;50.702;7.276;2022-07-17T06:50:05;100556.00;;;21.00
19948;BMP180;10135;50.702;7.276;2022-07-17T06:52:05;100560.00;;;21.00
19948;BMP180;10135;50.702;7.276;2022-07-17T06:54:07;100563.00;;;21.00
19948;BMP180;10135;50.702;7.276;2022-07-17T06:56:07;100568.00;;;21.10
19948;BMP180;10135;50.702;7.276;2022-07-17T06:58:08;100562.00;;;21.20
19948;BMP180;10135;50.702;7.276;2022-07-17T07:00:09;100562.00;;;21.30
19948;BMP180;10135;50.702;7.276;2022-07-17T07:02:10;100575.00;;;21.40
19948;BMP180;10135;50.702;7.276;2022-07-17T07:04:11;100568.00;;;21.50
19948;BMP180;10135;50.702;7.276;2022-07-17T07:06:13;100563.00;;;21.60
19948;BMP180;10135;50.702;7.276;2022-07-17T07:08:13;100561.00;;;21.60
19948;BMP180;10135;50.702;7.276;2022-07-17T07:10:14;100559.00;;;21.60
19948;BMP180;10135;50.702;7.276;2022-07-17T07:14:18;100549.00;;;21.70
19948;BMP180;10135;50.702;7.276;2022-07-17T07:16:18;100547.00;;;21.70
19948;BMP180;10135;50.702;7.276;2022-07-17T07:18:22;100545.00;;;21.80
19948;BMP180;10135;50.702;7.276;2022-07-17T07:20:22;100550.00;;;21.80
19948;BMP180;10135;50.702;7.276;2022-07-17T07:22:23;100547.00;;;21.80
19948;BMP180;10135;50.702;7.276;2022-07-17T07:24:24;100545.00;;;21.80
19948;BMP180;10135;50.702;7.276;2022-07-17T07:26:24;100542.00;;;21.90
19948;BMP180;10135;50.702;7.276;2022-07-17T07:28:25;100543.00;;;21.90
19948;BMP180;10135;50.702;7.276;2022-07-17T07:30:26;100537.00;;;21.90
19948;BMP180;10135;50.702;7.276;2022-07-17T07:32:27;100534.00;;;21.90
19948;BMP180;10135;50.702;7.276;2022-07-17T07:34:27;100533.00;;;22.00
19948;BMP180;10135;50.702;7.276;2022-07-17T07:36:28;100532.00;;;22.00
19948;BMP180;10135;50.702;7.276;2022-07-17T07:38:29;100531.00;;;22.00
19948;BMP180;10135;50.702;7.276;2022-07-17T07:40:30;100531.00;;;22.00
19948;BMP180;10135;50.702;7.276;2022-07-17T07:42:31;100535.00;;;22.10
19948;BMP180;10135;50.702;7.276;2022-07-17T07:44:31;100530.00;;;22.20
19948;BMP180;10135;50.702;7.276;2022-07-17T07:46:32;100531.00;;;22.20
19948;BMP180;10135;50.702;7.276;2022-07-17T07:48:34;100534.00;;;22.20
19948;BMP180;10135;50.702;7.276;2022-07-17T07:50:35;100536.00;;;22.30
19948;BMP180;10135;50.702;7.276;2022-07-17T07:52:35;100536.00;;;22.30
19948;BMP180;10135;50.702;7.276;2022-07-17T07:54:36;100531.00;;;22.30
19948;BMP180;10135;50.702;7.276;2022-07-17T07:56:36;100540.00;;;22.40
19948;BMP180;10135;50.702;7.276;2022-07-17T07:58:37;100533.00;;;22.50
19948;BMP180;10135;50.702;7.276;2022-07-17T08:00:40;100530.00;;;22.60
19948;BMP180;10135;50.702;7.276;2022-07-17T08:02:41;100527.00;;;22.70
19948;BMP180;10135;50.702;7.276;2022-07-17T08:04:42;100522.00;;;22.80
19948;BMP180;10135;50.702;7.276;2022-07-17T08:06:42;100508.00;;;23.00
19948;BMP180;10135;50.702;7.276;2022-07-17T08:08:43;100511.00;;;23.20
19948;BMP180;10135;50.702;7.276;2022-07-17T08:10:44;100517.00;;;23.40
19948;BMP180;10135;50.702;7.276;2022-07-17T08:12:45;100512.00;;;23.50
19948;BMP180;10135;50.702;7.276;2022-07-17T08:14:45;100517.00;;;23.50
19948;BMP180;10135;50.702;7.276;2022-07-17T08:16:46;100518.00;;;23.60
19948;BMP180;10135;50.702;7.276;2022-07-17T08:18:47;100512.00;;;23.60
19948;BMP180;10135;50.702;7.276;2022-07-17T08:20:47;100520.00;;;23.60
19948;BMP180;10135;50.702;7.276;2022-07-17T08:22:49;100514.00;;;23.60
19948;BMP180;10135;50.702;7.276;2022-07-17T08:24:50;100520.00;;;23.70
19948;BMP180;10135;50.702;7.276;2022-07-17T08:26:51;100517.00;;;23.70
19948;BMP180;10135;50.702;7.276;2022-07-17T08:28:52;100518.00;;;23.70
19948;BMP180;10135;50.702;7.276;2022-07-17T08:30:53;100522.00;;;23.80
19948;BMP180;10135;50.702;7.276;2022-07-17T08:32:53;100513.00;;;23.80
19948;BMP180;10135;50.702;7.276;2022-07-17T08:34:54;100528.00;;;23.80
19948;BMP180;10135;50.702;7.276;2022-07-17T08:36:54;100521.00;;;23.80
19948;BMP180;10135;50.702;7.276;2022-07-17T08:38:55;100528.00;;;23.80
19948;BMP180;10135;50.702;7.276;2022-07-17T08:40:56;100530.00;;;23.80
19948;BMP180;10135;50.702;7.276;2022-07-17T08:43:00;100539.00;;;23.80
19948;BMP180;10135;50.702;7.276;2022-07-17T08:45:01;100535.00;;;23.90
19948;BMP180;10135;50.702;7.276;2022-07-17T08:47:02;100534.00;;;23.90
19948;BMP180;10135;50.702;7.276;2022-07-17T08:49:07;100531.00;;;23.90
19948;BMP180;10135;50.702;7.276;2022-07-17T08:51:09;100528.00;;;23.90
19948;BMP180;10135;50.702;7.276;2022-07-17T08:53:10;100535.00;;;23.90
19948;BMP180;10135;50.702;7.276;2022-07-17T08:55:13;100536.00;;;23.90
19948;BMP180;10135;50.702;7.276;2022-07-17T08:57:14;100535.00;;;24.00
19948;BMP180;10135;50.702;7.276;2022-07-17T08:59:15;100541.00;;;24.00
19948;BMP180;10135;50.702;7.276;2022-07-17T09:01:18;100540.00;;;24.00
19948;BMP180;10135;50.702;7.276;2022-07-17T09:03:19;100535.00;;;24.00
19948;BMP180;10135;50.702;7.276;2022-07-17T09:05:22;100540.00;;;24.00
19948;BMP180;10135;50.702;7.276;2022-07-17T09:07:23;100532.00;;;24.10
19948;BMP180;10135;50.702;7.276;2022-07-17T09:09:24;100537.00;;;24.10
19948;BMP180;10135;50.702;7.276;2022-07-17T09:11:24;100536.00;;;24.10
19948;BMP180;10135;50.702;7.276;2022-07-17T09:13:29;100534.00;;;24.10
19948;BMP180;10135;50.702;7.276;2022-07-17T09:15:33;100527.00;;;24.20
19948;BMP180;10135;50.702;7.276;2022-07-17T09:17:34;100535.00;;;24.20
19948;BMP180;10135;50.702;7.276;2022-07-17T09:19:37;100532.00;;;24.20
19948;BMP180;10135;50.702;7.276;2022-07-17T09:21:39;100539.00;;;24.30
19948;BMP180;10135;50.702;7.276;2022-07-17T09:23:40;100544.00;;;24.30
19948;BMP180;10135;50.702;7.276;2022-07-17T09:25:45;100546.00;;;24.30
19948;BMP180;10135;50.702;7.276;2022-07-17T09:27:46;100546.00;;;24.30
19948;BMP180;10135;50.702;7.276;2022-07-17T09:30:07;100551.00;;;24.30
19948;BMP180;10135;50.702;7.276;2022-07-17T09:32:07;100554.00;;;24.30
19948;BMP180;10135;50.702;7.276;2022-07-17T09:34:18;100552.00;;;24.30
19948;BMP180;10135;50.702;7.276;2022-07-17T09:36:19;100558.00;;;24.40
19948;BMP180;10135;50.702;7.276;2022-07-17T09:38:28;100555.00;;;24.40
19948;BMP180;10135;50.702;7.276;2022-07-17T09:40:29;100559.00;;;24.40
19948;BMP180;10135;50.702;7.276;2022-07-17T09:42:55;100558.00;;;24.40
19948;BMP180;10135;50.702;7.276;2022-07-17T09:45:08;100561.00;;;24.40
19948;BMP180;10135;50.702;7.276;2022-07-17T09:47:09;100565.00;;;24.50
19948;BMP180;10135;50.702;7.276;2022-07-17T09:49:11;100557.00;;;24.50
19948;BMP180;10135;50.702;7.276;2022-07-17T09:51:25;100552.00;;;24.50
19948;BMP180;10135;50.702;7.276;2022-07-17T09:53:26;100550.00;;;24.60
19948;BMP180;10135;50.702;7.276;2022-07-17T09:55:30;100546.00;;;24.60
19948;BMP180;10135;50.702;7.276;2022-07-17T09:57:34;100544.00;;;24.60
19948;BMP180;10135;50.702;7.276;2022-07-17T09:59:37;100551.00;;;24.70
19948;BMP180;10135;50.702;7.276;2022-07-17T10:01:43;100550.00;;;24.70
19948;BMP180;10135;50.702;7.276;2022-07-17T10:03:45;100546.00;;;24.70
19948;BMP180;10135;50.702;7.276;2022-07-17T10:05:49;100545.00;;;24.70
19948;BMP180;10135;50.702;7.276;2022-07-17T10:07:49;100555.00;;;24.80
19948;BMP180;10135;50.702;7.276;2022-07-17T10:09:50;100547.00;;;24.80
19948;BMP180;10135;50.702;7.276;2022-07-17T10:11:51;100541.00;;;24.80
19948;BMP180;10135;50.702;7.276;2022-07-17T10:13:55;100543.00;;;24.90
19948;BMP180;10135;50.702;7.276;2022-07-17T10:15:57;100540.00;;;24.90
19948;BMP180;10135;50.702;7.276;2022-07-17T10:18:06;100538.00;;;24.90
19948;BMP180;10135;50.702;7.276;2022-07-17T10:20:09;100543.00;;;25.00
19948;BMP180;10135;50.702;7.276;2022-07-17T10:22:10;100548.00;;;25.00
19948;BMP180;10135;50.702;7.276;2022-07-17T10:24:11;100548.00;;;25.00
19948;BMP180;10135;50.702;7.276;2022-07-17T10:26:13;100551.00;;;25.10
19948;BMP180;10135;50.702;7.276;2022-07-17T10:28:14;100546.00;;;25.10
19948;BMP180;10135;50.702;7.276;2022-07-17T10:30:34;100557.00;;;25.10
19948;BMP180;10135;50.702;7.276;2022-07-17T10:32:37;100555.00;;;25.20
19948;BMP180;10135;50.702;7.276;2022-07-17T10:35:15;100555.00;;;25.20
19948;BMP180;10135;50.702;7.276;2022-07-17T10:39:37;100547.00;;;25.30
19948;BMP180;10135;50.702;7.276;2022-07-17T10:41:40;100543.00;;;25.30
19948;BMP180;10135;50.702;7.276;2022-07-17T10:43:44;100549.00;;;25.40
19948;BMP180;10135;50.702;7.276;2022-07-17T10:45:46;100549.00;;;25.40
19948;BMP180;10135;50.702;7.276;2022-07-17T10:48:06;100539.00;;;25.40
19948;BMP180;10135;50.702;7.276;2022-07-17T10:50:08;100541.00;;;25.50
19948;BMP180;10135;50.702;7.276;2022-07-17T10:52:08;100544.00;;;25.50
19948;BMP180;10135;50.702;7.276;2022-07-17T10:54:09;100540.00;;;25.60
19948;BMP180;10135;50.702;7.276;2022-07-17T10:56:10;100533.00;;;25.60
19948;BMP180;10135;50.702;7.276;2022-07-17T10:58:16;100535.00;;;25.70
19948;BMP180;10135;50.702;7.276;2022-07-17T11:00:17;100538.00;;;25.70
19948;BMP180;10135;50.702;7.276;2022-07-17T11:02:30;100543.00;;;25.80
19948;BMP180;10135;50.702;7.276;2022-07-17T11:04:37;100537.00;;;25.80
19948;BMP180;10135;50.702;7.276;2022-07-17T11:06:40;100535.00;;;25.90
19948;BMP180;10135;50.702;7.276;2022-07-17T11:08:43;100530.00;;;26.00
19948;BMP180;10135;50.702;7.276;2022-07-17T11:10:45;100533.00;;;26.10
19948;BMP180;10135;50.702;7.276;2022-07-17T11:12:47;100535.00;;;26.20
19948;BMP180;10135;50.702;7.276;2022-07-17T11:14:59;100539.00;;;26.20
19948;BMP180;10135;50.702;7.276;2022-07-17T11:17:02;100539.00;;;26.30
19948;BMP180;10135;50.702;7.276;2022-07-17T11:19:04;100536.00;;;26.30
19948;BMP180;10135;50.702;7.276;2022-07-17T11:21:05;100531.00;;;26.40
19948;BMP180;10135;50.702;7.276;2022-07-17T11:23:06;100525.00;;;26.40
19948;BMP180;10135;50.702;7.276;2022-07-17T11:25:07;100529.00;;;26.40
19948;BMP180;10135;50.702;7.276;2022-07-17T11:27:32;100532.00;;;26.40
19948;BMP180;10135;50.702;7.276;2022-07-17T11:29:41;100532.00;;;26.40
19948;BMP180;10135;50.702;7.276;2022-07-17T11:31:43;100532.00;;;26.50
19948;BMP180;10135;50.702;7.276;2022-07-17T11:35:51;100537.00;;;26.50
19948;BMP180;10135;50.702;7.276;2022-07-17T11:37:53;100531.00;;;26.60